Stations météo

réclame
Mon MeteoGroup
Mont-Rigi, Belgique (6494): Température de l'air & dewpoint: 18.11.2017 15:00:00 - 24.11.2017 15:00:00 (CET)Mont-Rigi, Belgique (6494): Vitesse du vent & gusts: 18.11.2017 15:00:00 - 24.11.2017 15:00:00 (CET)Mont-Rigi, Belgique (6494): Direction du vent: 18.11.2017 15:00:00 - 24.11.2017 15:00:00 (CET)Mont-Rigi, Belgique (6494): reduced air pressure: 18.11.2017 15:00:00 - 24.11.2017 15:00:00 (CET)Mont-Rigi, Belgique (6494): Ensoleillement: 18.11.2017 15:00:00 - 24.11.2017 15:00:00 (CET)Mont-Rigi, Belgique (6494): Quantités de précipitations: 18.11.2017 15:00:00 - 24.11.2017 15:00:00 (CET)
Date & Time tt [°C] td [°C] ff [km/h] ff [knt] fx [km/h] fx [knt] dd ppp [hPa] sd [min] rr [mm]
24.11.2017 15:00:00 - - - - - - - - - -
24.11.2017 14:00:00 4,0 3,9 13 7 23 13 W 1011,7 0 0,0
24.11.2017 13:00:00 4,3 4,3 14 8 26 14 W 1011,4 0 0,0
24.11.2017 12:00:00 4,7 4,7 10 5 22 12 W 1011,0 0 0,6
24.11.2017 11:00:00 5,1 5,0 11 6 18 10 W 1010,1 0 2,1
24.11.2017 10:00:00 5,0 4,9 9 5 21 11 NW 1009,4 0 1,3
24.11.2017 09:00:00 7,2 7,2 16 8 54 29 W 1007,6 0 1,9
24.11.2017 08:00:00 8,0 8,0 27 14 50 27 SW 1006,4 0 1,2
24.11.2017 07:00:00 8,4 8,4 29 16 57 31 SW 1006,0 0 0,8
24.11.2017 06:00:00 - - - - - - - - - -
24.11.2017 05:00:00 8,3 8,3 31 17 46 25 SSW 1006,4 0 2,6
24.11.2017 04:00:00 8,1 8,1 21 11 37 20 S 1006,6 0 2,2
24.11.2017 03:00:00 7,4 7,4 18 10 27 15 S 1007,8 0 0,0
24.11.2017 02:00:00 7,1 7,0 14 8 21 12 S 1008,8 0 0,1
24.11.2017 01:00:00 7,1 7,1 14 8 24 13 SW 1010,0 0 0,1
24.11.2017 00:00:00 7,1 7,0 13 7 21 11 SSW 1010,3 0 0,1
23.11.2017 23:00:00 - - - - - - - - - -
23.11.2017 22:00:00 7,3 7,1 15 8 27 15 SW 1010,5 0 0,1
23.11.2017 21:00:00 7,5 7,3 15 8 29 16 WSW 1010,3 0 0,0
23.11.2017 20:00:00 - - - - - - - - - -
23.11.2017 19:00:00 8,5 8,2 18 10 45 25 WSW 1008,8 0 0,0
23.11.2017 18:00:00 9,4 7,9 21 11 45 25 SSW 1007,5 0 0,0
23.11.2017 17:00:00 9,7 7,3 30 16 54 29 SSW 1006,5 0 0,0
23.11.2017 16:00:00 9,8 7,7 28 15 47 26 SSW 1005,6 0 0,0
23.11.2017 15:00:00 - - 29 16 50 27 SSW 1005,3 0 0,0
23.11.2017 14:00:00 9,3 7,6 30 16 54 29 SSW 1005,0 0 0,0
23.11.2017 13:00:00 8,4 7,2 30 16 49 26 SSW 1005,0 0 0,0
23.11.2017 12:00:00 8,2 7,1 27 15 49 26 SSW 1004,7 0 0,8
23.11.2017 11:00:00 8,8 5,5 25 14 41 22 SSW 1003,9 0 0,0
23.11.2017 10:00:00 7,5 4,6 31 17 54 29 S 1003,2 5 0,0
23.11.2017 09:00:00 - - - - - - - - - -
23.11.2017 08:00:00 6,6 3,8 30 16 49 26 S 1002,8 0 0,0
23.11.2017 07:00:00 6,3 3,5 25 14 48 26 S 1003,2 0 0,0
23.11.2017 06:00:00 5,7 3,0 28 15 45 25 S 1003,3 0 0,0
23.11.2017 05:00:00 - - - - - - - - - -
23.11.2017 04:00:00 5,1 2,3 25 14 39 21 S 1003,9 0 0,0
23.11.2017 03:00:00 5,1 2,1 26 14 42 23 S 1004,6 0 0,0
23.11.2017 02:00:00 5,1 1,9 24 13 35 19 S 1005,0 0 0,0
23.11.2017 01:00:00 5,3 1,7 18 10 32 17 S 1005,5 0 0,0
23.11.2017 00:00:00 5,3 1,7 20 11 36 19 S 1005,7 0 0,0
22.11.2017 23:00:00 - - - - - - - - - -
22.11.2017 22:00:00 5,4 2,4 22 12 42 23 S 1006,2 0 0,0
22.11.2017 21:00:00 - - - - - - - - - -
22.11.2017 20:00:00 - - - - - - - - - -
22.11.2017 19:00:00 4,8 3,6 22 12 39 21 S 1007,3 0 0,0
22.11.2017 18:00:00 5,4 3,8 22 12 39 21 S 1007,9 0 0,0
22.11.2017 17:00:00 6,1 3,6 24 13 35 19 S 1008,1 26 0,0
22.11.2017 16:00:00 7,3 4,3 16 9 36 19 S 1008,0 40 0,0
22.11.2017 15:00:00 8,2 4,8 22 12 32 17 S 1008,2 51 0,0
22.11.2017 14:00:00 8,6 5,7 15 8 27 15 S 1008,9 45 0,0
22.11.2017 13:00:00 - - - - - - - - - -
22.11.2017 12:00:00 7,2 5,7 18 10 28 15 S 1010,0 0 0,0
22.11.2017 11:00:00 6,1 6,0 19 10 29 16 S 1010,7 0 0,0
22.11.2017 10:00:00 - - - - - - - - - -
22.11.2017 09:00:00 4,9 4,9 21 11 37 20 S 1010,4 0 0,0
22.11.2017 08:00:00 5,0 5,0 24 13 41 22 SSW 1010,1 0 0,0
22.11.2017 07:00:00 5,3 5,3 29 16 46 25 SSW 1009,9 0 0,0
22.11.2017 06:00:00 5,2 5,2 25 14 38 21 SW 1010,7 0 0,0
22.11.2017 05:00:00 5,1 5,1 23 12 38 21 SSW 1010,9 0 0,0
22.11.2017 04:00:00 5,0 5,0 23 12 40 22 SW 1011,2 0 0,0
22.11.2017 03:00:00 - - - - - - - - - -
22.11.2017 02:00:00 5,0 5,0 25 14 39 21 SSW 1011,9 0 0,0
22.11.2017 01:00:00 4,9 4,9 25 14 36 19 SW 1012,1 0 0,0
22.11.2017 00:00:00 4,9 4,9 25 13 43 23 SSW 1012,4 0 0,0
21.11.2017 23:00:00 4,7 4,7 26 14 43 23 SW 1012,8 0 0,1
21.11.2017 22:00:00 - - - - - - - - - -
21.11.2017 21:00:00 4,3 4,3 27 15 42 23 SW 1013,6 0 0,0
21.11.2017 20:00:00 4,6 4,6 26 14 42 23 SW 1013,6 0 0,0
21.11.2017 19:00:00 4,7 4,7 22 12 36 19 SW 1013,8 0 0,1
21.11.2017 18:00:00 4,7 4,7 19 11 34 18 SW 1013,9 0 0,0
21.11.2017 17:00:00 4,8 4,8 21 11 36 19 SW 1014,0 0 0,0
21.11.2017 16:00:00 5,0 5,0 21 11 36 20 SW 1013,8 0 0,0
21.11.2017 15:00:00 5,4 5,4 24 13 39 21 SW 1014,2 0 0,0
21.11.2017 14:00:00 5,9 5,9 26 14 45 24 SW 1014,1 0 0,1
21.11.2017 13:00:00 6,1 6,1 29 16 43 23 SW 1014,4 0 0,3
21.11.2017 12:00:00 - - - - - - - - - -
21.11.2017 11:00:00 6,5 6,5 22 12 36 20 SW 1014,8 0 1,6
21.11.2017 10:00:00 - - - - - - - - - -
21.11.2017 09:00:00 6,8 6,8 20 11 38 21 SW 1014,0 0 0,8
21.11.2017 08:00:00 6,9 6,9 21 11 38 20 WSW 1013,8 0 1,5
21.11.2017 07:00:00 6,9 6,9 19 11 33 18 WSW 1013,5 0 1,7
21.11.2017 06:00:00 6,8 6,8 19 10 35 19 WSW 1013,6 0 1,2
21.11.2017 05:00:00 6,7 6,7 18 10 34 18 WSW 1013,5 0 0,3
21.11.2017 04:00:00 6,7 6,7 23 13 37 20 WSW 1013,6 0 0,6
21.11.2017 03:00:00 6,7 6,7 18 10 37 20 WSW 1013,9 0 0,1
21.11.2017 02:00:00 6,5 6,5 19 10 35 19 WSW 1013,9 0 0,1
21.11.2017 01:00:00 6,1 6,1 21 11 39 21 WSW 1014,0 0 1,3
21.11.2017 00:00:00 5,7 5,7 21 11 39 21 WSW 1014,2 0 0,2
20.11.2017 23:00:00 5,6 5,6 22 12 43 23 WSW 1013,9 0 0,1
20.11.2017 22:00:00 5,5 5,5 24 13 48 26 WSW 1014,2 0 1,0
20.11.2017 21:00:00 - - - - - - - - - -
20.11.2017 20:00:00 - - - - - - - - - -
20.11.2017 19:00:00 4,5 4,4 26 14 45 25 SW 1014,3 0 0,3
20.11.2017 18:00:00 4,0 3,9 26 14 45 24 SW 1014,8 0 0,3
20.11.2017 17:00:00 3,4 3,3 26 14 42 23 SW 1015,5 0 0,4
20.11.2017 16:00:00 3,3 3,2 26 14 41 22 SW 1015,8 0 1,1
20.11.2017 15:00:00 2,1 2,0 18 10 32 17 SSW 1016,8 0 2,1
20.11.2017 14:00:00 1,7 1,6 22 12 34 18 SSW 1017,8 0 2,2
20.11.2017 13:00:00 1,2 1,0 17 9 29 15 SSW 1018,7 0 1,1
20.11.2017 12:00:00 0,7 0,5 20 11 29 16 SSW 1019,7 0 0,3
20.11.2017 11:00:00 - - - - - - - - - -
20.11.2017 10:00:00 - - - - - - - - - -
20.11.2017 09:00:00 -0,2 -0,3 15 8 24 13 SW 1022,1 0 0,0
20.11.2017 08:00:00 -0,5 -0,7 12 7 22 12 SW 1022,1 0 0,0
20.11.2017 07:00:00 -0,6 -0,8 14 8 23 12 SW 1022,3 0 0,0
20.11.2017 06:00:00 -0,8 -1,0 12 6 21 11 SW 1022,4 0 0,0
20.11.2017 05:00:00 -0,2 -0,4 12 7 23 13 SW 1022,5 0 0,0
20.11.2017 04:00:00 0,0 -0,2 13 7 23 12 SW 1022,7 0 0,0
20.11.2017 03:00:00 0,0 -0,2 13 7 23 12 SW 1023,2 0 0,0
20.11.2017 02:00:00 0,2 0,0 14 7 24 13 WSW 1023,3 0 0,0
20.11.2017 01:00:00 0,3 0,1 14 8 24 13 WSW 1023,7 0 0,0
20.11.2017 00:00:00 0,4 0,2 13 7 24 13 WSW 1023,9 0 0,0
19.11.2017 23:00:00 0,7 0,5 14 8 27 14 WSW 1023,9 0 0,0
19.11.2017 22:00:00 1,0 0,9 13 7 31 17 W 1023,5 0 0,0
19.11.2017 21:00:00 1,3 1,2 16 8 35 19 W 1022,8 0 0,0
19.11.2017 20:00:00 1,4 1,3 16 9 32 17 W 1022,3 0 0,2
19.11.2017 19:00:00 1,3 1,2 16 9 32 17 W 1022,1 0 0,1
19.11.2017 18:00:00 1,6 1,5 16 9 37 20 W 1021,5 0 0,0
19.11.2017 17:00:00 1,5 1,4 15 8 39 21 W 1021,0 0 0,0
19.11.2017 16:00:00 - - - - - - - - - -
19.11.2017 15:00:00 1,8 1,6 16 9 30 16 W 1020,6 0 0,0
19.11.2017 14:00:00 1,7 1,5 13 7 35 19 W 1020,4 0 0,0
19.11.2017 13:00:00 1,2 1,1 18 10 28 15 W 1020,4 0 0,0
19.11.2017 12:00:00 1,1 0,9 14 8 31 17 W 1020,1 0 0,1
19.11.2017 11:00:00 0,4 0,2 17 9 28 15 WNW 1020,1 0 0,5
19.11.2017 10:00:00 0,1 -0,1 17 9 28 15 WNW 1019,5 0 0,6
19.11.2017 09:00:00 0,0 -0,2 14 8 27 14 WNW 1019,2 0 0,0
19.11.2017 08:00:00 -0,1 -0,3 13 7 23 13 WNW 1018,6 0 0,0
19.11.2017 07:00:00 -0,2 -0,4 14 8 28 15 WNW 1018,1 0 0,0
19.11.2017 06:00:00 0,6 0,5 17 9 32 17 WNW 1017,5 0 0,0
19.11.2017 05:00:00 1,1 0,9 19 11 44 24 WNW 1017,0 0 0,0
19.11.2017 04:00:00 1,8 1,7 22 12 41 22 WNW 1016,4 0 0,0
19.11.2017 03:00:00 2,0 1,9 22 12 43 23 WNW 1016,3 0 0,2
19.11.2017 02:00:00 2,3 2,2 26 14 40 22 WNW 1016,5 0 0,8
19.11.2017 01:00:00 2,8 2,7 18 10 38 20 W 1016,3 0 0,0
19.11.2017 00:00:00 2,9 2,8 19 11 39 21 W 1016,9 0 0,0
18.11.2017 23:00:00 2,8 2,7 18 10 35 19 WSW 1017,1 0 0,0
18.11.2017 22:00:00 2,6 2,4 22 12 36 19 WSW 1017,6 0 0,6
18.11.2017 21:00:00 2,4 2,2 21 12 39 21 WSW 1018,2 0 1,1
18.11.2017 20:00:00 1,9 1,7 23 12 38 20 WSW 1018,9 0 0,4
18.11.2017 19:00:00 1,8 1,3 22 12 35 19 WSW 1019,3 0 0,1
18.11.2017 18:00:00 1,6 0,8 20 11 35 19 WSW 1019,5 0 0,0
18.11.2017 17:00:00 1,5 0,3 22 12 36 19 WSW 1019,9 0 0,0
18.11.2017 16:00:00 1,1 0,0 19 11 33 18 WSW 1020,3 0 0,0
18.11.2017 15:00:00 0,7 -0,4 18 10 39 21 WSW 1020,9 0 0,0

tt = Température de l'air
td = dewpoint
ff = Vitesse du vent
fx = gusts
dd = Direction du vent
ppp = reduced air pressure
sd = Ensoleillement
rr = Quantités de précipitations

stations d'obs. à proximité